Terminal Aerodrome Forecast
Issued by NWS

Home | Current Version | Previous Version | Text Only | Print | Product List | Glossary On
Versions: 1 2 3 4 5 6 7 8 9 10 11 12 13 14 15 16 17 18 19 20
000
FTUS44 KLZK 031700
TAFLIT
TAF
KLIT 031721Z 0318/0418 25007KT 5SM -RA BR BKN040 OVC080
      TEMPO 0318/0321 2SM -TSRA BR BKN010CB
     FM032100 24009KT 5SM -RA BKN025 OVC050
      TEMPO 0321/0401 3SM BR BKN030
     FM040100 VRB03KT 6SM -SHRA BR OVC040
     FM040600 VRB03KT P6SM SCT040 OVC080
      TEMPO 0410/0414 5SM BR BKN015
     FM041500 11007KT P6SM SCT100=

USA.gov is the U.S. government's official web portal to all federal, state and local government web resources and services.